Accueil
METAR-TAF:

METAR-TAF

Aéroports :

Base aérienne 123 Orléans-Bricy

Orléans, France

latitude: 47-59N, longitude: 001-45E, altitude: 126 m

Observation

Le bulletin a été fait il y a 24 minutes, à 08:00 UTC
Vent 7 kt de est/nord-est
Température 8°C
Humidité 93%
Pression 1023 hPa
Visibilité: 0450 m
brouillard

METAR: LFOJ 160800Z AUTO 07007KT 0450 R25/0600N FG VV/// 08/07 Q1023 BECMG 0600 FG

Heure: 09:24 (08:24 UTC)

Prévision

Le bulletin a été fait il y a 15 heures et 39 minutes, à 16:45 UTC
Prévision valable du 15 à 16 UTC au 16 à 15 UTC
Vent 5 kt de est
Visibilité: 0400 m
brouillard
Evoluant progressivement
du 16 à 09 UTC au 16 à 11 UTC
Visibilité: 3000 m
Ciel couvert à une hauteur de 300 ft
brume
Evoluant progressivement
du 16 à 12 UTC au 16 à 15 UTC
Visibilité: 8000 m

TAF: LFOJ 151645Z 1516/1615 09005KT 0400 FG VV/// BECMG 1609/1611 3000 BR OVC003 BECMG 1612/1615 8000 NSW

Observations et prévisions météorologiques de plus de 4000 aéroports (messages METAR et TAF).

Les stations disponibles sont représentées par des disques jaunes et rouges sur la carte.

Passer la souris dessus pour voir le nom de la station.

Cliquer dessus pour voir les observations et prévisions météorologiques.

Pour changer de carte: cliquez sur les boutons verts avec une croix noire pour zoomer, sur le bouton vert avec un tiret pour effectuer un zoom arrière, ou sur les flèches vertes pour les cartes adjacentes.


METAR-TAF: